Time;durP1;ratioP1;P1;durP2;ratioP2;P2;SDS_P1;SDS_P2;PMS_P1;PMS_P2;Temp;Humidity;BMP_temperature;BMP_pressure;BME280_temperature;BME280_humidity;BME280_pressure;Samples;Min_cycle;Max_cycle;Signal;HPM_P1;HPM_P2
2022/12/09 00:03:16;;;;;;;40.90;18.70;;;;;;;1.52;100.00;97908.64;213881;1312;23877;-77
2022/12/09 00:08:24;;;;;;;38.20;18.70;;;;;;;1.51;100.00;97909.38;213880;1311;25314;-77
2022/12/09 00:13:31;;;;;;;44.90;20.10;;;;;;;1.50;100.00;97906.99;214080;1310;22508;-77
2022/12/09 00:18:34;;;;;;;49.20;22.50;;;;;;;1.52;100.00;97910.61;213927;1311;22611;-77
2022/12/09 00:23:35;;;;;;;38.90;18.80;;;;;;;1.54;100.00;97914.31;213908;1312;23110;-77
2022/12/09 00:28:38;;;;;;;37.30;19.40;;;;;;;1.54;99.99;97919.81;213756;1312;22579;-76
2022/12/09 00:33:40;;;;;;;39.40;19.30;;;;;;;1.51;100.00;97920.04;213815;1312;22522;-77
2022/12/09 00:38:45;;;;;;;37.90;16.40;;;;;;;1.50;100.00;97923.84;214016;1312;23573;-78
2022/12/09 00:43:47;;;;;;;41.40;18.60;;;;;;;1.51;100.00;97930.13;214042;1312;22510;-76
2022/12/09 00:48:49;;;;;;;40.60;18.30;;;;;;;1.50;100.00;97936.71;213800;1312;22475;-76
2022/12/09 00:53:53;;;;;;;40.30;18.10;;;;;;;1.51;100.00;97945.77;213782;1311;25427;-77
2022/12/09 00:58:57;;;;;;;38.50;18.50;;;;;;;1.52;100.00;97950.83;214036;1312;22489;-77
2022/12/09 01:04:00;;;;;;;37.70;17.10;;;;;;;1.52;100.00;97951.73;213939;1312;25357;-77
2022/12/09 01:09:03;;;;;;;37.00;17.20;;;;;;;1.52;100.00;97946.65;214091;1312;24288;-77
2022/12/09 01:14:06;;;;;;;30.60;15.70;;;;;;;1.52;100.00;97947.61;213959;1312;25383;-77
2022/12/09 01:19:12;;;;;;;31.80;14.40;;;;;;;1.52;100.00;97944.85;213940;1311;22479;-76
2022/12/09 01:24:14;;;;;;;25.20;13.30;;;;;;;1.51;100.00;97942.91;213900;1311;22484;-76
2022/12/09 01:29:16;;;;;;;24.20;12.50;;;;;;;1.50;100.00;97936.93;213798;1312;22590;-77
2022/12/09 01:34:17;;;;;;;26.50;13.80;;;;;;;1.50;100.00;97934.08;213919;1312;23042;-77
2022/12/09 01:39:20;;;;;;;30.20;15.30;;;;;;;1.51;100.00;97935.88;213807;1312;22529;-76
2022/12/09 01:44:24;;;;;;;31.60;16.20;;;;;;;1.50;100.00;97932.39;213968;1312;22538;-77
2022/12/09 01:49:33;;;;;;;34.10;16.70;;;;;;;1.50;100.00;97923.61;213922;1312;23784;-77
2022/12/09 01:54:36;;;;;;;41.00;17.40;;;;;;;1.52;100.00;97915.35;214018;1311;22472;-76
2022/12/09 01:59:39;;;;;;;35.50;17.10;;;;;;;1.55;100.00;97909.78;213956;1312;23741;-77
2022/12/09 02:04:44;;;;;;;41.70;17.10;;;;;;;1.55;100.00;97900.91;213730;1311;25343;-76
2022/12/09 02:09:51;;;;;;;35.20;15.70;;;;;;;1.54;100.00;97897.95;213866;1312;25364;-76
2022/12/09 02:15:05;;;;;;;26.70;13.90;;;;;;;1.53;100.00;97898.58;214042;1312;25302;-76
2022/12/09 02:20:20;;;;;;;37.20;16.60;;;;;;;1.53;100.00;97896.25;214015;1312;23232;-76
2022/12/09 02:25:33;;;;;;;31.10;14.60;;;;;;;1.53;100.00;97895.73;213832;1307;22499;-77
2022/12/09 02:30:55;;;;;;;35.20;15.80;;;;;;;1.54;100.00;97893.36;213791;1312;22608;-77
2022/12/09 02:36:04;;;;;;;37.40;16.20;;;;;;;1.58;100.00;97895.70;213906;1312;23753;-77
2022/12/09 02:41:14;;;;;;;33.30;15.40;;;;;;;1.60;100.00;97891.72;213970;1312;22648;-77
2022/12/09 02:46:20;;;;;;;37.20;16.20;;;;;;;1.59;100.00;97888.59;213863;1312;25446;-78
2022/12/09 02:51:25;;;;;;;34.50;14.80;;;;;;;1.60;100.00;97887.43;214018;1312;25475;-76
2022/12/09 02:56:28;;;;;;;34.40;16.00;;;;;;;1.58;100.00;97883.73;213897;1312;22522;-77
2022/12/09 03:01:42;;;;;;;39.00;17.20;;;;;;;1.55;100.00;97879.85;214014;1312;23879;-77
2022/12/09 03:06:52;;;;;;;39.40;17.80;;;;;;;1.57;100.00;97889.10;213883;1312;25429;-76
2022/12/09 03:11:58;;;;;;;34.20;16.30;;;;;;;1.56;100.00;97892.42;213908;1312;22559;-77
2022/12/09 03:17:11;;;;;;;34.20;15.80;;;;;;;1.54;100.00;97886.45;214003;1312;23362;-76
2022/12/09 03:22:17;;;;;;;37.40;17.30;;;;;;;1.53;100.00;97880.67;213855;1311;22554;-76
2022/12/09 03:27:24;;;;;;;29.20;13.70;;;;;;;1.51;100.00;97875.64;213885;1307;22567;-77
2022/12/09 03:32:28;;;;;;;36.00;17.40;;;;;;;1.49;100.00;97875.42;213769;1312;24443;-78
2022/12/09 03:37:32;;;;;;;25.80;13.30;;;;;;;1.49;100.00;97868.30;214093;1311;22473;-77
2022/12/09 03:42:41;;;;;;;44.90;18.30;;;;;;;1.48;100.00;97867.60;213890;1312;23914;-76
2022/12/09 03:47:43;;;;;;;33.20;16.30;;;;;;;1.51;100.00;97867.88;214026;1312;22470;-77
2022/12/09 03:52:52;;;;;;;49.10;19.20;;;;;;;1.52;100.00;97861.88;213978;1312;23867;-76
2022/12/09 03:57:59;;;;;;;38.40;17.80;;;;;;;1.52;100.00;97862.62;214296;1312;25298;-76
2022/12/09 04:03:00;;;;;;;45.10;20.20;;;;;;;1.49;100.00;97865.91;214006;1312;23778;-78
2022/12/09 04:08:02;;;;;;;44.20;18.60;;;;;;;1.45;100.00;97863.98;213952;1307;25415;-77
2022/12/09 04:13:05;;;;;;;36.70;16.90;;;;;;;1.45;100.00;97865.14;213940;1307;22600;-78
2022/12/09 04:18:06;;;;;;;47.60;20.70;;;;;;;1.41;100.00;97862.67;214019;1312;24401;-78
2022/12/09 04:23:09;;;;;;;53.90;23.90;;;;;;;1.33;100.00;97863.60;213841;1312;25313;-77
2022/12/09 04:28:11;;;;;;;52.60;22.40;;;;;;;1.33;100.00;97864.82;213973;1312;25223;-76
2022/12/09 04:33:13;;;;;;;51.60;21.80;;;;;;;1.30;100.00;97867.34;213917;1309;22708;-76
2022/12/09 04:38:15;;;;;;;64.10;25.80;;;;;;;1.24;100.00;97865.69;213746;1300;22475;-77
2022/12/09 04:43:16;;;;;;;54.50;21.80;;;;;;;1.20;100.00;97860.69;213850;1311;24214;-76
2022/12/09 04:48:19;;;;;;;63.20;26.60;;;;;;;1.10;100.00;97857.90;213949;1311;22471;-76
2022/12/09 04:53:21;;;;;;;71.20;27.80;;;;;;;1.05;100.00;97859.23;213931;1312;22914;-77
2022/12/09 04:58:23;;;;;;;62.70;25.10;;;;;;;0.99;100.00;97860.44;214136;1305;22934;-76
2022/12/09 05:03:26;;;;;;;66.40;26.50;;;;;;;0.90;100.00;97863.61;213837;1298;22474;-76
2022/12/09 05:08:28;;;;;;;61.60;23.20;;;;;;;0.80;100.00;97864.81;213879;1312;25260;-75
2022/12/09 05:13:33;;;;;;;68.90;25.10;;;;;;;0.70;100.00;97866.66;213949;1312;25377;-76
2022/12/09 05:18:35;;;;;;;74.10;25.70;;;;;;;0.61;100.00;97866.70;213943;1306;22494;-76
2022/12/09 05:23:38;;;;;;;79.00;29.30;;;;;;;0.51;100.00;97870.29;213926;1312;25470;-76
2022/12/09 05:28:41;;;;;;;73.90;27.70;;;;;;;0.43;100.00;97866.33;214099;1312;24225;-76
2022/12/09 05:33:44;;;;;;;86.30;31.30;;;;;;;0.35;100.00;97866.55;214013;1312;22483;-76
2022/12/09 05:38:47;;;;;;;91.90;32.20;;;;;;;0.26;100.00;97870.80;214011;1312;24265;-75
2022/12/09 05:43:50;;;;;;;87.60;30.00;;;;;;;0.17;100.00;97869.32;213650;1312;24223;-76
2022/12/09 05:48:53;;;;;;;86.30;30.60;;;;;;;0.09;100.00;97870.10;213969;1312;22510;-77
2022/12/09 05:53:59;;;;;;;97.30;32.30;;;;;;;-0.02;100.00;97873.53;213963;1312;23801;-77
2022/12/09 05:59:02;;;;;;;88.30;31.00;;;;;;;-0.13;100.00;97870.73;214005;1312;22472;-76
2022/12/09 06:04:04;;;;;;;74.40;28.10;;;;;;;-0.22;100.00;97870.34;214013;1312;22470;-77
2022/12/09 06:09:10;;;;;;;100.90;36.90;;;;;;;-0.28;100.00;97868.94;213801;1312;22464;-76
2022/12/09 06:14:12;;;;;;;99.20;34.20;;;;;;;-0.31;100.00;97865.20;213781;1312;22505;-76
2022/12/09 06:19:15;;;;;;;102.60;36.40;;;;;;;-0.33;100.00;97863.33;213909;1312;22490;-76
2022/12/09 06:24:17;;;;;;;117.80;38.80;;;;;;;-0.36;100.00;97867.80;213891;1312;25581;-76
2022/12/09 06:29:19;;;;;;;106.40;38.40;;;;;;;-0.39;100.00;97864.66;213951;1312;22522;-76
2022/12/09 06:34:22;;;;;;;110.30;36.40;;;;;;;-0.43;100.00;97858.66;213907;1311;22488;-77
2022/12/09 06:39:24;;;;;;;112.60;37.70;;;;;;;-0.47;100.00;97853.25;213861;1312;26017;-76
2022/12/09 06:44:25;;;;;;;120.90;38.10;;;;;;;-0.54;100.00;97854.77;213952;1312;24111;-76
2022/12/09 06:49:27;;;;;;;118.40;39.10;;;;;;;-0.61;100.00;97848.73;214369;1294;22489;-75
2022/12/09 06:54:29;;;;;;;117.70;40.10;;;;;;;-0.65;100.00;97843.40;214524;1297;22521;-76
2022/12/09 06:59:31;;;;;;;135.30;41.50;;;;;;;-0.71;100.00;97842.42;214521;1284;24297;-76
2022/12/09 07:04:33;;;;;;;135.40;41.00;;;;;;;-0.73;100.00;97842.48;214695;1287;22489;-76
2022/12/09 07:09:36;;;;;;;137.50;42.60;;;;;;;-0.74;100.00;97838.41;215292;1281;139119;-75
2022/12/09 07:14:38;;;;;;;137.10;41.30;;;;;;;-0.74;100.00;97833.46;214934;1281;139277;-75
2022/12/09 07:19:40;;;;;;;132.20;42.00;;;;;;;-0.72;100.00;97835.40;214455;1287;139340;-73
2022/12/09 07:24:43;;;;;;;126.70;41.40;;;;;;;-0.69;100.00;97836.63;214538;1295;139235;-74
2022/12/09 07:29:45;;;;;;;124.60;42.00;;;;;;;-0.67;100.00;97835.36;214493;1281;24113;-73
2022/12/09 07:34:47;;;;;;;137.50;45.80;;;;;;;-0.64;100.00;97844.25;214296;1281;139188;-74
2022/12/09 07:39:50;;;;;;;160.20;51.30;;;;;;;-0.62;100.00;97842.23;214442;1290;139082;-74
2022/12/09 07:44:52;;;;;;;146.80;46.90;;;;;;;-0.60;100.00;97844.23;214647;1287;139319;-74
2022/12/09 07:49:54;;;;;;;157.20;50.20;;;;;;;-0.57;100.00;97847.21;214330;1292;139275;-74
2022/12/09 07:55:00;;;;;;;176.00;55.20;;;;;;;-0.50;100.00;97853.85;214397;1281;139430;-75
2022/12/09 08:00:03;;;;;;;170.50;52.10;;;;;;;-0.45;100.00;97850.13;214713;1289;139348;-76
2022/12/09 08:05:12;;;;;;;165.30;52.60;;;;;;;-0.40;100.00;97858.95;214570;1285;23813;-75
2022/12/09 08:10:15;;;;;;;170.00;51.90;;;;;;;-0.36;100.00;97855.27;214315;1285;138891;-75
2022/12/09 08:15:18;;;;;;;151.50;50.20;;;;;;;-0.32;100.00;97856.45;214500;1285;139164;-75
2022/12/09 08:20:21;;;;;;;171.60;52.80;;;;;;;-0.29;100.00;97857.59;214761;1284;139250;-75
2022/12/09 08:25:30;;;;;;;167.50;51.40;;;;;;;-0.24;100.00;97860.66;214328;1290;139908;-75
2022/12/09 08:30:32;;;;;;;167.20;52.40;;;;;;;-0.16;100.00;97861.05;214553;1284;139705;-74
2022/12/09 08:35:36;;;;;;;170.30;54.20;;;;;;;-0.05;100.00;97856.42;214510;1295;22484;-75
2022/12/09 08:40:39;;;;;;;185.90;58.70;;;;;;;0.07;100.00;97852.06;214666;1288;139511;-74
2022/12/09 08:45:41;;;;;;;187.90;58.50;;;;;;;0.22;100.00;97849.47;214628;1287;139582;-73
2022/12/09 08:50:43;;;;;;;211.60;62.30;;;;;;;0.38;100.00;97854.73;214346;1289;139024;-74
2022/12/09 08:55:46;;;;;;;188.60;57.60;;;;;;;0.54;100.00;97847.70;214477;1281;139173;-73
2022/12/09 09:00:49;;;;;;;199.60;60.40;;;;;;;0.71;100.00;97849.85;214439;1302;139672;-73
2022/12/09 09:05:50;;;;;;;188.60;58.90;;;;;;;0.96;100.00;97849.16;214632;1303;22485;-74
2022/12/09 09:10:53;;;;;;;241.70;73.80;;;;;;;1.18;100.00;97846.52;214417;1305;138572;-74
2022/12/09 09:15:55;;;;;;;213.90;68.40;;;;;;;1.38;100.00;97843.70;214277;1295;138891;-75
2022/12/09 09:20:58;;;;;;;224.60;73.70;;;;;;;1.50;100.00;97835.20;214125;1311;139548;-75
2022/12/09 09:26:02;;;;;;;230.80;74.40;;;;;;;1.68;100.00;97833.33;214724;1308;139662;-75
2022/12/09 09:31:06;;;;;;;198.50;64.20;;;;;;;1.89;100.00;97825.06;214535;1285;139834;-75
2022/12/09 09:36:19;;;;;;;193.50;64.00;;;;;;;2.03;100.00;97824.26;214739;1281;139954;-75
2022/12/09 09:41:25;;;;;;;195.40;67.00;;;;;;;2.08;100.00;97820.42;215118;1284;22595;-77
2022/12/09 09:46:42;;;;;;;212.20;72.20;;;;;;;2.17;100.00;97814.39;214664;1288;139446;-77
2022/12/09 09:51:45;;;;;;;212.00;71.70;;;;;;;2.22;100.00;97817.70;214471;1301;139373;-77
2022/12/09 09:57:37;;;;;;;219.40;74.60;;;;;;;2.25;100.00;97810.52;214550;1287;140165;-77
2022/12/09 10:03:03;;;;;;;240.90;79.70;;;;;;;2.31;100.00;97809.34;214204;1308;139604;-77
2022/12/09 10:08:26;;;;;;;214.30;77.20;;;;;;;2.42;100.00;97808.37;214619;1285;139616;-77
2022/12/09 10:13:42;;;;;;;244.90;85.10;;;;;;;2.49;100.00;97805.44;214451;1286;139642;-76
2022/12/09 10:19:00;;;;;;;300.50;104.40;;;;;;;2.53;100.00;97803.91;214503;1297;139567;-75
2022/12/09 10:24:24;;;;;;;305.80;108.90;;;;;;;2.60;100.00;97795.73;214586;1295;139250;-75
2022/12/09 10:29:55;;;;;;;245.00;93.50;;;;;;;2.63;100.00;97792.16;214674;1288;25294;-76
2022/12/09 10:34:58;;;;;;;257.90;93.30;;;;;;;2.64;100.00;97799.94;214664;1284;138699;-75
2022/12/09 10:40:34;;;;;;;218.00;79.10;;;;;;;2.72;100.00;97795.14;214576;1292;147169;-76
2022/12/09 10:45:47;;;;;;;240.30;86.20;;;;;;;2.81;100.00;97788.13;214413;1297;139870;-74
2022/12/09 10:51:23;;;;;;;220.20;78.10;;;;;;;2.91;100.00;97783.59;214552;1289;139891;-75
2022/12/09 10:56:31;;;;;;;216.60;75.50;;;;;;;2.91;100.00;97781.95;214605;1292;139876;-74
2022/12/09 11:01:50;;;;;;;169.00;63.60;;;;;;;2.90;100.00;97777.61;214704;1281;139590;-76
2022/12/09 11:07:02;;;;;;;156.70;62.40;;;;;;;2.86;99.99;97760.52;214605;1285;139518;-75
2022/12/09 11:12:16;;;;;;;240.20;86.20;;;;;;;2.85;100.00;97760.63;214600;1285;139561;-75
2022/12/09 11:17:38;;;;;;;250.50;88.10;;;;;;;2.91;100.00;97758.41;215225;1294;22467;-74
2022/12/09 11:22:42;;;;;;;222.80;81.30;;;;;;;2.98;100.00;97749.42;214688;1292;139456;-74
2022/12/09 11:27:53;;;;;;;189.10;69.80;;;;;;;3.04;100.00;97741.42;214472;1287;139897;-74
2022/12/09 11:32:57;;;;;;;178.80;62.80;;;;;;;3.07;100.00;97725.98;214805;1292;139602;-76
2022/12/09 11:38:12;;;;;;;162.00;61.30;;;;;;;3.16;100.00;97717.93;214645;1294;139706;-74
2022/12/09 11:43:14;;;;;;;167.00;63.20;;;;;;;3.22;100.00;97716.40;214486;1291;139756;-73
2022/12/09 11:48:27;;;;;;;191.90;72.70;;;;;;;3.26;100.00;97710.09;214803;1292;139226;-74
2022/12/09 11:53:40;;;;;;;145.50;54.60;;;;;;;3.28;99.96;97692.73;214931;1284;22519;-74
2022/12/09 11:58:47;;;;;;;137.50;54.60;;;;;;;3.32;99.96;97691.23;214832;1288;138744;-74
2022/12/09 12:03:59;;;;;;;142.20;56.10;;;;;;;3.32;99.94;97689.38;214952;1285;139607;-74
2022/12/09 12:09:10;;;;;;;204.10;73.60;;;;;;;3.35;99.91;97689.96;214675;1287;139789;-73
2022/12/09 12:14:21;;;;;;;131.40;52.80;;;;;;;3.42;99.97;97682.74;214604;1284;139682;-73
2022/12/09 12:19:36;;;;;;;133.70;52.00;;;;;;;3.48;99.99;97679.49;214547;1300;139382;-74
2022/12/09 12:24:45;;;;;;;128.00;51.20;;;;;;;3.52;99.99;97677.64;215236;1290;139577;-73
2022/12/09 12:30:09;;;;;;;132.20;53.60;;;;;;;3.57;99.84;97654.32;214585;1287;24239;-74
2022/12/09 12:35:29;;;;;;;97.10;39.50;;;;;;;3.64;99.93;97642.34;214672;1302;25537;-73
2022/12/09 12:40:37;;;;;;;73.90;34.40;;;;;;;3.68;99.78;97631.52;214446;1289;138527;-73
2022/12/09 12:46:15;;;;;;;97.90;41.50;;;;;;;3.72;99.91;97624.71;214688;1296;138820;-74
2022/12/09 12:51:36;;;;;;;110.80;44.80;;;;;;;3.82;99.85;97636.65;214613;1286;139135;-73
2022/12/09 12:57:02;;;;;;;66.20;30.80;;;;;;;3.80;99.52;97641.05;214479;1288;138993;-74
2022/12/09 13:02:21;;;;;;;71.10;32.30;;;;;;;3.69;98.98;97644.38;214443;1291;138794;-74
2022/12/09 13:07:37;;;;;;;83.50;33.70;;;;;;;3.64;98.74;97627.60;214707;1287;138825;-75
2022/12/09 13:12:55;;;;;;;71.70;33.30;;;;;;;3.58;98.33;97621.54;214713;1281;139503;-74
2022/12/09 13:18:06;;;;;;;83.30;36.30;;;;;;;3.55;98.40;97620.23;214592;1284;23179;-74
2022/12/09 13:23:38;;;;;;;89.00;35.40;;;;;;;3.55;98.38;97620.34;214717;1287;22475;-73
2022/12/09 13:28:53;;;;;;;61.30;27.20;;;;;;;3.50;97.81;97622.78;214565;1284;138832;-75
2022/12/09 13:34:14;;;;;;;67.40;29.50;;;;;;;3.43;97.75;97626.77;214469;1285;139181;-74
2022/12/09 13:39:38;;;;;;;80.40;33.00;;;;;;;3.37;97.66;97626.64;214610;1286;139360;-74
2022/12/09 13:44:39;;;;;;;69.40;30.10;;;;;;;3.31;97.70;97609.60;214652;1287;138707;-74
2022/12/09 13:49:50;;;;;;;73.10;29.50;;;;;;;3.29;97.75;97601.78;214601;1284;139238;-74
2022/12/09 13:54:52;;;;;;;63.10;28.70;;;;;;;3.25;97.67;97599.24;214563;1284;139187;-74
2022/12/09 13:59:59;;;;;;;60.70;29.30;;;;;;;3.21;98.04;97608.03;214403;1285;24596;-73
2022/12/09 14:05:25;;;;;;;67.70;30.80;;;;;;;3.17;97.79;97600.80;214667;1281;138805;-74
2022/12/09 14:10:46;;;;;;;55.70;25.20;;;;;;;3.17;98.03;97601.81;214253;1286;139226;-74
2022/12/09 14:16:26;;;;;;;64.90;27.50;;;;;;;3.19;97.75;97603.80;214488;1281;138684;-73
2022/12/09 14:21:30;;;;;;;;;;;;;;;3.18;97.55;97595.30;214381;1284;138971;-73
2022/12/09 14:26:46;;;;;;;46.70;21.60;;;;;;;3.16;97.16;97590.05;214402;1288;124999;-73
2022/12/09 14:31:54;;;;;;;58.00;26.70;;;;;;;3.09;96.89;97598.02;214282;1292;138917;-73
2022/12/09 14:37:40;;;;;;;49.60;24.80;;;;;;;3.03;97.01;97595.58;214535;1288;139104;-78
2022/12/09 14:43:04;;;;;;;47.90;24.10;;;;;;;2.97;97.05;97598.02;214569;1288;138680;-73
2022/12/09 14:48:13;;;;;;;53.60;25.20;;;;;;;2.95;97.11;97598.77;214575;1281;24452;-76
2022/12/09 14:53:24;;;;;;;44.30;21.60;;;;;;;2.97;97.20;97599.63;214620;1281;25292;-73
2022/12/09 14:58:26;;;;;;;31.90;17.60;;;;;;;2.86;96.99;97583.39;214396;1297;138346;-73
2022/12/09 15:03:29;;;;;;;36.50;19.10;;;;;;;2.82;97.15;97574.36;214354;1284;22573;-74
2022/12/09 15:08:39;;;;;;;36.70;18.40;;;;;;;2.79;96.90;97566.38;213954;1304;22486;-74
2022/12/09 15:13:46;;;;;;;37.30;20.20;;;;;;;2.71;96.87;97565.85;213821;1312;25935;-76
2022/12/09 15:18:50;;;;;;;28.20;16.20;;;;;;;2.61;96.92;97559.89;213859;1312;24262;-74
2022/12/09 15:23:52;;;;;;;33.70;18.00;;;;;;;2.51;97.12;97548.74;213888;1312;23357;-75
2022/12/09 15:28:55;;;;;;;35.70;18.70;;;;;;;2.41;97.07;97534.85;214018;1312;22472;-73
2022/12/09 15:33:59;;;;;;;43.30;22.80;;;;;;;2.32;97.48;97533.05;213973;1307;22582;-74
2022/12/09 15:39:06;;;;;;;41.30;22.90;;;;;;;2.25;97.59;97527.77;213852;1312;22465;-75
2022/12/09 15:44:13;;;;;;;35.80;18.10;;;;;;;2.18;97.83;97517.09;213832;1312;22528;-74
2022/12/09 15:49:22;;;;;;;30.90;18.10;;;;;;;2.15;98.09;97514.91;213893;1312;23435;-74
2022/12/09 15:54:34;;;;;;;42.80;21.40;;;;;;;2.10;98.19;97509.52;213879;1312;24330;-74
2022/12/09 15:59:47;;;;;;;49.70;25.10;;;;;;;2.03;98.17;97497.80;213955;1311;24250;-74
2022/12/09 16:05:01;;;;;;;57.40;27.70;;;;;;;1.96;98.09;97498.38;213901;1312;25249;-74
2022/12/09 16:10:06;;;;;;;60.60;28.00;;;;;;;1.89;98.44;97492.18;213805;1312;26393;-74
2022/12/09 16:15:13;;;;;;;44.90;24.40;;;;;;;1.87;98.61;97490.80;213832;1312;23226;-73
2022/12/09 16:20:36;;;;;;;66.20;30.10;;;;;;;1.83;98.67;97488.32;213952;1312;22494;-74
2022/12/09 16:25:48;;;;;;;52.60;24.80;;;;;;;1.84;99.19;97485.14;213888;1312;22502;-74
2022/12/09 16:30:54;;;;;;;70.10;31.10;;;;;;;1.81;99.13;97479.19;213882;1299;22960;-73
2022/12/09 16:35:58;;;;;;;69.30;31.00;;;;;;;1.77;99.14;97477.76;213876;1313;22543;-74
2022/12/09 16:41:03;;;;;;;66.40;30.70;;;;;;;1.75;99.44;97470.99;213827;1312;24284;-75
2022/12/09 16:46:14;;;;;;;54.60;26.60;;;;;;;1.75;99.59;97470.52;213939;1312;26390;-74
2022/12/09 16:51:22;;;;;;;65.30;30.20;;;;;;;1.76;99.71;97459.96;213824;1312;24394;-74
2022/12/09 16:56:27;;;;;;;88.40;39.00;;;;;;;1.74;99.81;97455.05;213962;1312;26368;-74
2022/12/09 17:01:34;;;;;;;78.10;34.60;;;;;;;1.70;99.78;97443.37;213955;1312;22528;-74
2022/12/09 17:06:36;;;;;;;55.70;27.30;;;;;;;1.64;99.76;97441.36;213971;1312;24496;-75
2022/12/09 17:11:38;;;;;;;47.80;23.50;;;;;;;1.57;99.83;97435.45;213901;1312;22546;-74
2022/12/09 17:16:47;;;;;;;79.60;35.90;;;;;;;1.51;99.97;97435.91;214028;1311;22481;-74
2022/12/09 17:21:54;;;;;;;39.90;19.50;;;;;;;1.46;100.00;97432.79;213865;1312;24866;-76
2022/12/09 17:26:55;;;;;;;38.00;19.70;;;;;;;1.41;99.98;97428.18;213870;1312;22476;-74
2022/12/09 17:31:57;;;;;;;34.20;18.40;;;;;;;1.38;100.00;97419.53;213886;1312;24443;-74
2022/12/09 17:36:59;;;;;;;34.40;18.10;;;;;;;1.36;100.00;97417.61;213807;1312;22479;-72
2022/12/09 17:42:01;;;;;;;35.90;18.60;;;;;;;1.34;100.00;97417.35;213876;1312;22512;-74
2022/12/09 17:47:02;;;;;;;39.30;19.20;;;;;;;1.32;100.00;97418.93;213882;1312;24509;-74
2022/12/09 17:52:04;;;;;;;30.70;17.40;;;;;;;1.27;100.00;97418.13;213885;1311;25379;-74
2022/12/09 17:57:06;;;;;;;31.00;16.40;;;;;;;1.19;100.00;97416.33;213907;1312;25337;-76
2022/12/09 18:02:09;;;;;;;41.30;20.00;;;;;;;1.13;100.00;97414.04;213871;1312;25323;-74
2022/12/09 18:07:11;;;;;;;47.70;24.10;;;;;;;1.11;100.00;97407.40;213961;1312;22530;-75
2022/12/09 18:12:13;;;;;;;50.50;23.50;;;;;;;1.08;100.00;97399.84;213801;1312;25280;-75
2022/12/09 18:17:15;;;;;;;54.80;25.90;;;;;;;1.08;100.00;97389.70;213906;1312;25270;-74
2022/12/09 18:22:16;;;;;;;61.70;26.00;;;;;;;1.07;100.00;97388.44;213875;1312;25344;-75
2022/12/09 18:27:18;;;;;;;66.20;28.80;;;;;;;1.03;100.00;97379.20;213791;1312;22479;-74
2022/12/09 18:32:20;;;;;;;70.60;32.60;;;;;;;1.00;100.00;97374.51;213932;1311;22615;-75
2022/12/09 18:37:24;;;;;;;71.40;30.60;;;;;;;0.97;100.00;97381.87;213760;1312;23077;-74
2022/12/09 18:42:26;;;;;;;52.10;25.50;;;;;;;0.94;100.00;97384.66;213956;1312;24353;-75
2022/12/09 18:47:28;;;;;;;54.10;27.20;;;;;;;0.88;100.00;97384.70;213860;1312;22488;-74
2022/12/09 18:52:29;;;;;;;49.20;25.00;;;;;;;0.82;100.00;97381.09;213883;1311;24475;-75
2022/12/09 18:57:31;;;;;;;68.50;31.60;;;;;;;0.81;100.00;97373.39;213832;1312;25256;-75
2022/12/09 19:02:33;;;;;;;61.50;27.70;;;;;;;0.77;100.00;97369.52;213859;1312;24284;-75
2022/12/09 19:07:35;;;;;;;64.70;31.50;;;;;;;0.73;100.00;97363.18;213875;1310;24519;-75
2022/12/09 19:12:37;;;;;;;84.70;36.60;;;;;;;0.72;100.00;97354.70;213986;1310;22483;-74
2022/12/09 19:17:48;;;;;;;78.70;35.10;;;;;;;0.72;100.00;97355.75;214068;1310;25302;-75
2022/12/09 19:22:51;;;;;;;66.00;31.90;;;;;;;0.69;100.00;97347.45;214312;1310;24124;-75
2022/12/09 19:27:54;;;;;;;78.80;36.30;;;;;;;0.64;100.00;97355.94;214199;1310;24317;-75
2022/12/09 19:32:55;;;;;;;67.00;31.60;;;;;;;0.62;100.00;97353.98;214303;1310;25581;-75
2022/12/09 19:37:59;;;;;;;76.20;34.40;;;;;;;0.61;100.00;97348.60;214319;1310;25430;-78
2022/12/09 19:43:02;;;;;;;80.20;35.40;;;;;;;0.54;100.00;97351.68;214129;1310;22481;-74
2022/12/09 19:48:04;;;;;;;68.40;33.60;;;;;;;0.52;100.00;97353.94;214016;1310;22568;-75
2022/12/09 19:53:07;;;;;;;75.00;35.10;;;;;;;0.54;100.00;97351.00;214038;1310;25343;-75
2022/12/09 19:58:09;;;;;;;84.50;39.00;;;;;;;0.53;100.00;97340.98;214041;1310;25445;-75
2022/12/09 20:03:11;;;;;;;76.60;35.30;;;;;;;0.52;100.00;97333.77;214070;1310;22603;-75
2022/12/09 20:08:12;;;;;;;79.30;33.10;;;;;;;0.50;100.00;97329.23;213888;1304;22476;-75
2022/12/09 20:13:15;;;;;;;87.80;38.10;;;;;;;0.48;100.00;97324.58;214090;1310;24278;-77
2022/12/09 20:18:16;;;;;;;93.70;40.50;;;;;;;0.45;100.00;97327.36;214089;1310;23810;-76
2022/12/09 20:23:18;;;;;;;71.90;31.40;;;;;;;0.45;100.00;97327.98;214109;1307;22482;-77
2022/12/09 20:28:20;;;;;;;109.40;46.30;;;;;;;0.45;100.00;97330.25;214119;1310;22993;-76
2022/12/09 20:33:22;;;;;;;83.20;37.70;;;;;;;0.46;100.00;97333.59;214149;1308;22601;-76
2022/12/09 20:38:23;;;;;;;91.70;37.90;;;;;;;0.46;100.00;97324.25;213923;1310;25475;-75
2022/12/09 20:43:25;;;;;;;85.60;36.50;;;;;;;0.44;100.00;97321.92;214103;1311;22471;-76
2022/12/09 20:48:27;;;;;;;75.40;32.50;;;;;;;0.44;100.00;97307.95;214105;1310;22633;-76
2022/12/09 20:53:29;;;;;;;79.10;34.80;;;;;;;0.44;100.00;97312.27;214057;1310;22475;-75
2022/12/09 20:58:31;;;;;;;64.80;29.30;;;;;;;0.43;100.00;97319.17;214205;1310;22516;-77
2022/12/09 21:03:33;;;;;;;86.10;35.00;;;;;;;0.43;100.00;97317.80;214039;1310;22472;-76
2022/12/09 21:08:36;;;;;;;59.00;25.00;;;;;;;0.44;100.00;97321.66;214035;1310;24257;-75
2022/12/09 21:13:41;;;;;;;66.10;30.20;;;;;;;0.42;100.00;97315.13;214085;1310;24413;-76
2022/12/09 21:18:42;;;;;;;69.20;29.00;;;;;;;0.40;100.00;97304.89;214278;1310;22605;-76
2022/12/09 21:23:45;;;;;;;75.70;31.30;;;;;;;0.39;100.00;97307.77;213960;1310;25458;-75
2022/12/09 21:28:48;;;;;;;81.50;33.50;;;;;;;0.39;100.00;97308.35;213920;1295;26631;-75
2022/12/09 21:33:51;;;;;;;71.50;31.30;;;;;;;0.40;100.00;97304.25;214069;1311;22474;-76
2022/12/09 21:38:53;;;;;;;65.90;29.30;;;;;;;0.39;100.00;97303.29;214074;1306;22484;-77
2022/12/09 21:43:56;;;;;;;55.70;25.10;;;;;;;0.40;100.00;97307.57;213918;1310;22531;-76
2022/12/09 21:48:59;;;;;;;52.50;23.00;;;;;;;0.38;100.00;97316.05;214090;1310;22464;-77
2022/12/09 21:54:05;;;;;;;56.60;26.10;;;;;;;0.38;100.00;97321.80;214063;1310;22492;-74
2022/12/09 21:59:08;;;;;;;64.40;28.30;;;;;;;0.40;100.00;97321.75;213970;1310;23076;-76
2022/12/09 22:04:14;;;;;;;73.60;30.10;;;;;;;0.42;100.00;97314.11;214099;1310;22594;-76
2022/12/09 22:09:19;;;;;;;83.10;31.90;;;;;;;0.45;100.00;97319.92;214136;1310;25005;-76
2022/12/09 22:14:22;;;;;;;78.60;30.10;;;;;;;0.46;100.00;97317.13;213982;1299;22479;-76
2022/12/09 22:19:25;;;;;;;77.90;30.30;;;;;;;0.46;100.00;97316.02;213969;1310;22575;-76
2022/12/09 22:24:27;;;;;;;77.10;31.40;;;;;;;0.46;100.00;97315.08;214153;1306;22562;-75
2022/12/09 22:29:28;;;;;;;80.50;31.60;;;;;;;0.48;100.00;97317.93;214019;1310;25317;-75
2022/12/09 22:34:35;;;;;;;81.20;32.20;;;;;;;0.49;100.00;97316.72;214085;1310;22564;-75
2022/12/09 22:39:37;;;;;;;73.50;30.90;;;;;;;0.51;100.00;97320.27;213987;1310;183360;-75
2022/12/09 22:44:39;;;;;;;79.00;31.80;;;;;;;0.50;100.00;97313.15;214190;1310;22463;-74
2022/12/09 22:49:41;;;;;;;70.10;31.00;;;;;;;0.49;100.00;97310.72;213984;1310;22598;-75
2022/12/09 22:54:43;;;;;;;57.50;25.20;;;;;;;0.48;100.00;97314.45;213970;1310;22473;-76
2022/12/09 22:59:45;;;;;;;54.00;24.40;;;;;;;0.46;100.00;97315.98;213925;1310;22467;-75
2022/12/09 23:04:46;;;;;;;55.90;23.40;;;;;;;0.46;100.00;97324.41;214098;1310;22485;-74
2022/12/09 23:09:49;;;;;;;55.00;23.50;;;;;;;0.47;100.00;97322.14;214118;1310;22493;-75